Date,TemperatureHighF,TemperatureAvgF,TemperatureLowF,DewpointHighF,DewpointAvgF,DewpointLowF,HumidityHigh,HumidityAvg,HumidityLow,PressureMaxIn,PressureMinIn,WindSpeedMaxMPH,WindSpeedAvgMPH,GustSpeedMaxMPH,PrecipitationSumIn
2013-1-2,25,18,13,21,16,10,91,89,84,30.20,30.11,3,1,0,0.00
2013-1-3,28,20,11,26,17,8,93,87,78,30.19,29.95,6,3,0,0.00
2013-1-4,35,31,27,27,24,20,92,76,62,29.98,29.85,15,8,0,0.00
2013-1-5,36,32,26,29,26,22,86,78,70,30.27,29.98,10,3,0,0.00
2013-1-6,38,34,31,33,30,25,94,84,77,30.05,29.86,8,4,0,0.00
2013-1-7,35,27,17,33,23,14,94,86,73,30.37,30.04,5,2,0,0.00
2013-1-8,42,31,20,28,23,18,94,73,56,30.30,30.14,9,3,0,0.00
2013-1-9,49,35,17,39,29,15,95,78,63,30.29,29.93,11,6,0,0.00
2013-1-10,46,38,31,33,29,27,90,73,57,30.57,30.29,10,2,0,0.00
2013-1-11,44,39,32,41,35,28,92,83,66,30.42,29.89,10,4,0,0.00
2013-1-12,57,49,41,51,46,40,98,90,81,29.99,29.93,6,4,0,0.00
2013-1-13,67,55,46,59,52,44,98,88,73,29.96,29.74,11,3,0,0.00
2013-1-14,52,37,29,50,31,22,95,80,66,30.36,29.71,14,5,0,0.00
2013-1-15,35,29,24,23,22,19,83,74,59,30.37,30.16,4,1,0,0.00
2013-1-16,38,32,28,31,26,23,87,80,62,30.16,29.75,6,2,0,0.00
2013-1-17,36,26,17,30,20,13,90,79,66,30.16,29.81,9,4,0,0.00
2013-1-18,32,20,9,19,13,6,92,74,55,30.40,30.03,10,3,0,0.00
2013-1-19,48,41,32,32,26,18,68,56,46,30.02,29.58,12,7,0,0.00
2013-1-20,48,32,19,37,21,10,80,63,50,30.04,29.43,16,10,0,0.00
2013-1-21,22,19,14,14,10,5,83,70,60,30.04,29.83,9,3,0,0.00